createdAt,value
2018-11-29T00:00:34.327Z,18.12
2018-11-29T00:03:02.751Z,17.30
2018-11-29T00:05:31.270Z,18.20
2018-11-29T00:07:59.639Z,18.90
2018-11-29T00:10:28.027Z,17.90
2018-11-29T00:12:56.364Z,17.82
2018-11-29T00:15:24.726Z,17.27
2018-11-29T00:17:53.150Z,18.45
2018-11-29T00:20:21.531Z,17.05
2018-11-29T00:22:50.595Z,17.50
2018-11-29T00:25:19.519Z,16.90
2018-11-29T00:27:48.067Z,17.37
2018-11-29T00:30:21.219Z,18.55
2018-11-29T00:32:49.961Z,16.87
2018-11-29T00:35:18.520Z,17.37
2018-11-29T00:37:47.009Z,16.07
2018-11-29T00:40:23.662Z,18.27
2018-11-29T00:42:52.235Z,17.55
2018-11-29T00:45:22.523Z,16.90
2018-11-29T00:47:51.143Z,17.10
2018-11-29T00:50:20.048Z,17.92
2018-11-29T00:52:49.198Z,17.75
2018-11-29T00:55:19.328Z,17.82
2018-11-29T00:57:47.718Z,18.00
2018-11-29T01:00:20.024Z,16.67
2018-11-29T01:02:48.515Z,17.90
2018-11-29T01:05:16.875Z,18.23
2018-11-29T01:07:45.283Z,17.37
2018-11-29T01:10:14.524Z,16.07
2018-11-29T01:12:43.028Z,16.32
2018-11-29T01:15:19.069Z,17.10
2018-11-29T01:17:48.191Z,17.23
2018-11-29T01:20:17.610Z,16.50
2018-11-29T01:22:46.013Z,16.17
2018-11-29T01:25:14.997Z,15.98
2018-11-29T01:27:44.383Z,16.97
2018-11-29T01:30:16.330Z,16.30
2018-11-29T01:32:44.742Z,16.85
2018-11-29T01:35:15.106Z,17.17
2018-11-29T01:37:43.482Z,17.15
2018-11-29T01:40:17.487Z,17.80
2018-11-29T01:43:02.030Z,17.45
2018-11-29T01:45:30.430Z,17.02
2018-11-29T01:47:58.822Z,15.83
2018-11-29T01:50:27.179Z,16.00
2018-11-29T01:52:55.593Z,16.05
2018-11-29T01:55:23.962Z,16.65
2018-11-29T01:57:52.373Z,16.40
2018-11-29T02:00:20.752Z,16.65
2018-11-29T02:02:52.675Z,17.75
2018-11-29T02:05:21.118Z,16.30
2018-11-29T02:07:49.532Z,16.05
2018-11-29T02:10:23.341Z,15.85
2018-11-29T02:12:52.134Z,16.23
2018-11-29T02:15:20.495Z,15.72
2018-11-29T02:17:48.853Z,17.12
2018-11-29T02:20:17.950Z,16.25
2018-11-29T02:22:46.565Z,16.57
2018-11-29T02:25:14.995Z,16.00
2018-11-29T02:27:43.322Z,16.57
2018-11-29T02:30:20.259Z,17.17
2018-11-29T02:32:48.654Z,15.65
2018-11-29T02:35:17.171Z,16.40
2018-11-29T02:37:45.525Z,17.40
2018-11-29T02:40:14.850Z,15.75
2018-11-29T02:42:43.495Z,16.17
2018-11-29T02:45:13.107Z,16.85
2018-11-29T02:47:41.490Z,16.85
2018-11-29T02:50:10.667Z,15.18
2018-11-29T02:52:39.006Z,15.78
2018-11-29T02:55:10.283Z,16.32
2018-11-29T02:57:38.695Z,16.48
2018-11-29T03:00:13.153Z,17.85
2018-11-29T03:02:41.598Z,16.77
2018-11-29T03:05:10.100Z,16.48
2018-11-29T03:07:38.541Z,15.90
2018-11-29T03:10:09.035Z,15.68
2018-11-29T03:12:37.402Z,15.38
2018-11-29T03:15:10.035Z,16.77
2018-11-29T03:17:38.475Z,15.50
2018-11-29T03:20:08.500Z,16.67
2018-11-29T03:22:36.821Z,16.05
2018-11-29T03:25:09.053Z,15.63
2018-11-29T03:27:37.436Z,16.55
2018-11-29T03:30:08.573Z,16.37
2018-11-29T03:32:36.917Z,15.35
2018-11-29T03:35:05.322Z,16.60
2018-11-29T03:37:33.685Z,17.40
2018-11-29T03:40:02.088Z,15.32
2018-11-29T03:42:30.450Z,17.20
2018-11-29T03:44:58.941Z,17.02
2018-11-29T03:47:27.405Z,16.25
2018-11-29T03:49:55.763Z,16.00
2018-11-29T03:52:24.147Z,17.00
2018-11-29T03:54:52.523Z,17.90
2018-11-29T03:57:20.867Z,15.75
2018-11-29T03:59:49.216Z,16.67
2018-11-29T04:02:17.579Z,16.40
2018-11-29T04:04:45.935Z,17.17
2018-11-29T04:07:14.295Z,17.32
2018-11-29T04:09:42.662Z,16.70
2018-11-29T04:12:11.004Z,17.95
2018-11-29T04:14:39.409Z,16.57
2018-11-29T04:17:07.777Z,16.45
2018-11-29T04:19:36.211Z,17.45
2018-11-29T04:22:04.626Z,15.80
2018-11-29T04:24:32.969Z,17.52
2018-11-29T04:27:01.332Z,15.78
2018-11-29T04:29:29.707Z,15.75
2018-11-29T04:31:58.226Z,16.80
2018-11-29T04:34:26.606Z,17.10
2018-11-29T04:36:54.983Z,17.52
2018-11-29T04:39:23.344Z,17.10
2018-11-29T04:41:51.703Z,16.77
2018-11-29T04:44:20.036Z,16.85
2018-11-29T04:46:50.523Z,17.23
2018-11-29T04:49:18.925Z,17.05
2018-11-29T04:51:47.414Z,16.15
2018-11-29T04:54:15.753Z,16.52
2018-11-29T04:56:44.138Z,16.52
2018-11-29T04:59:12.526Z,16.65
2018-11-29T05:01:40.889Z,17.70
2018-11-29T05:04:09.301Z,18.30
2018-11-29T05:06:37.642Z,16.80
2018-11-29T05:09:08.678Z,16.45
2018-11-29T05:11:37.427Z,18.10
2018-11-29T05:14:06.071Z,18.48
2018-11-29T05:16:34.435Z,17.77
2018-11-29T05:19:02.791Z,17.65
2018-11-29T05:21:31.192Z,17.73
2018-11-29T05:23:59.565Z,18.27
2018-11-29T05:26:27.936Z,19.50
2018-11-29T05:28:56.327Z,18.35
2018-11-29T05:31:24.706Z,17.20
2018-11-29T05:33:53.068Z,17.37
2018-11-29T05:36:21.419Z,17.17
2018-11-29T05:38:49.800Z,17.92
2018-11-29T05:41:18.177Z,18.17
2018-11-29T05:43:46.809Z,17.98
2018-11-29T05:46:15.242Z,17.48
2018-11-29T05:48:43.693Z,17.67
2018-11-29T05:51:12.031Z,17.40
2018-11-29T05:53:40.525Z,17.30
2018-11-29T05:56:08.902Z,17.20
2018-11-29T05:58:37.237Z,17.87
2018-11-29T06:01:11.757Z,17.75
2018-11-29T06:03:40.167Z,17.35
2018-11-29T06:06:08.531Z,16.35
2018-11-29T06:08:36.877Z,16.00
2018-11-29T06:11:05.546Z,16.93
2018-11-29T06:13:33.931Z,17.85
2018-11-29T06:16:02.305Z,16.20
2018-11-29T06:18:30.668Z,15.43
2018-11-29T06:20:59.033Z,16.87
2018-11-29T06:23:27.430Z,16.45
2018-11-29T06:25:55.804Z,16.70
2018-11-29T06:28:24.169Z,16.25
2018-11-29T06:30:52.527Z,16.45
2018-11-29T06:33:20.905Z,17.17
2018-11-29T06:35:49.295Z,16.65
2018-11-29T06:38:17.756Z,17.37
2018-11-29T06:40:46.170Z,15.63
2018-11-29T06:43:14.535Z,16.35
2018-11-29T06:45:42.876Z,15.85
2018-11-29T06:48:11.264Z,15.83
2018-11-29T06:50:39.674Z,15.80
2018-11-29T06:53:13.422Z,17.00
2018-11-29T06:55:41.807Z,17.27
2018-11-29T06:58:10.218Z,16.80
2018-11-29T07:00:38.578Z,15.38
2018-11-29T07:03:06.999Z,16.05
2018-11-29T07:05:35.372Z,15.45
2018-11-29T07:08:03.769Z,16.77
2018-11-29T07:10:32.151Z,17.27
2018-11-29T07:13:00.795Z,16.07
2018-11-29T07:15:29.151Z,16.50
2018-11-29T07:17:57.611Z,15.83
2018-11-29T07:20:25.958Z,17.50
2018-11-29T07:22:54.402Z,23.22
2018-11-29T07:25:22.818Z,17.00
2018-11-29T07:27:51.160Z,16.27
2018-11-29T07:30:19.886Z,15.93
2018-11-29T07:32:48.210Z,16.77
2018-11-29T07:35:17.084Z,17.52
2018-11-29T07:37:45.430Z,16.57
2018-11-29T07:40:16.790Z,17.90
2018-11-29T07:42:46.145Z,17.73
2018-11-29T07:45:16.546Z,16.65
2018-11-29T07:47:45.365Z,17.00
2018-11-29T07:50:14.860Z,16.27
2018-11-29T07:52:43.353Z,16.15
2018-11-29T07:55:19.842Z,17.25
2018-11-29T07:57:49.474Z,16.50
2018-11-29T08:00:18.016Z,16.85
2018-11-29T08:02:46.401Z,15.48
2018-11-29T08:05:15.517Z,16.75
2018-11-29T08:07:47.705Z,16.75
2018-11-29T08:10:17.155Z,17.00
2018-11-29T08:12:45.623Z,15.53
2018-11-29T08:15:15.175Z,17.40
2018-11-29T08:17:43.545Z,17.00
2018-11-29T08:20:16.922Z,15.70
2018-11-29T08:22:45.374Z,16.10
2018-11-29T08:25:13.769Z,16.00
2018-11-29T08:27:42.187Z,16.35
2018-11-29T08:30:13.251Z,17.70
2018-11-29T08:32:42.058Z,18.30
2018-11-29T08:35:12.288Z,18.00
2018-11-29T08:37:42.699Z,18.57
2018-11-29T08:40:14.515Z,16.52
2018-11-29T08:42:42.974Z,16.85
2018-11-29T08:45:11.879Z,17.45
2018-11-29T08:47:40.648Z,17.75
2018-11-29T08:50:11.006Z,17.02
2018-11-29T08:52:39.852Z,16.75
2018-11-29T08:55:15.250Z,16.32
2018-11-29T08:57:43.727Z,16.52
2018-11-29T09:00:13.993Z,16.95
2018-11-29T09:02:42.741Z,16.25
2018-11-29T09:05:11.824Z,18.25
2018-11-29T09:07:40.248Z,17.90
2018-11-29T09:10:12.841Z,19.07
2018-11-29T09:12:41.374Z,19.55
2018-11-29T09:15:11.812Z,17.17
2018-11-29T09:17:40.283Z,16.15
2018-11-29T09:20:10.303Z,16.73
2018-11-29T09:22:38.740Z,18.92
2018-11-29T09:25:09.230Z,22.20
2018-11-29T09:27:37.662Z,17.42
2018-11-29T09:30:13.768Z,19.10
2018-11-29T09:32:42.691Z,16.95
2018-11-29T09:35:11.146Z,14.70
2018-11-29T09:37:39.548Z,16.35
2018-11-29T09:40:13.036Z,15.88
2018-11-29T09:42:41.502Z,15.28
2018-11-29T09:45:13.987Z,16.67
2018-11-29T09:47:42.667Z,16.10
2018-11-29T09:50:13.103Z,15.50
2018-11-29T09:52:41.559Z,15.07
2018-11-29T09:55:13.734Z,15.30
2018-11-29T09:57:42.610Z,17.30
2018-11-29T10:00:12.695Z,17.70
2018-11-29T10:02:41.406Z,17.42
2018-11-29T10:05:10.755Z,16.75
2018-11-29T10:07:39.120Z,16.10
2018-11-29T10:10:09.360Z,17.15
2018-11-29T10:12:37.790Z,16.87
2018-11-29T10:15:08.323Z,16.75
2018-11-29T10:17:36.726Z,16.07
2018-11-29T10:20:06.944Z,16.10
2018-11-29T10:22:35.263Z,16.27
2018-11-29T10:25:03.996Z,16.05
2018-11-29T10:27:32.393Z,16.80
2018-11-29T10:30:00.750Z,15.60
2018-11-29T10:32:29.122Z,15.37
2018-11-29T10:34:57.490Z,15.33
2018-11-29T10:37:25.822Z,16.35
2018-11-29T10:39:54.182Z,15.65
2018-11-29T10:42:22.533Z,15.67
2018-11-29T10:44:50.918Z,17.00
2018-11-29T10:47:19.326Z,16.80
2018-11-29T10:49:47.746Z,15.47
2018-11-29T10:52:16.145Z,17.53
2018-11-29T10:54:44.488Z,16.87
2018-11-29T10:57:12.878Z,16.20
2018-11-29T10:59:41.226Z,15.73
2018-11-29T11:02:14.407Z,15.60
2018-11-29T11:04:42.750Z,15.77
2018-11-29T11:07:11.154Z,16.70
2018-11-29T11:09:39.491Z,15.80
2018-11-29T11:12:07.867Z,14.77
2018-11-29T11:14:36.306Z,15.80
2018-11-29T11:17:04.607Z,15.60
2018-11-29T11:19:33.044Z,15.83
2018-11-29T11:22:01.413Z,15.50
2018-11-29T11:24:29.800Z,15.03
2018-11-29T11:26:58.175Z,15.90
2018-11-29T11:29:26.555Z,15.80
2018-11-29T11:31:54.982Z,16.00
2018-11-29T11:34:23.490Z,14.50
2018-11-29T11:36:51.854Z,14.60
2018-11-29T11:39:20.262Z,15.83
2018-11-29T11:41:48.610Z,15.40
2018-11-29T11:44:17.004Z,14.60
2018-11-29T11:46:45.508Z,15.63
2018-11-29T11:49:13.849Z,16.60
2018-11-29T11:51:42.299Z,16.60
2018-11-29T11:54:10.678Z,17.10
2018-11-29T11:56:39.155Z,15.87
2018-11-29T11:59:07.637Z,15.53
2018-11-29T12:01:35.998Z,16.57
2018-11-29T12:04:04.446Z,16.57
2018-11-29T12:06:32.896Z,18.20
2018-11-29T12:09:01.276Z,15.50
2018-11-29T12:11:31.167Z,16.60
2018-11-29T12:13:58.014Z,14.83
2018-11-29T12:16:26.485Z,15.80
2018-11-29T12:18:54.847Z,16.03
2018-11-29T12:21:23.311Z,16.20
2018-11-29T12:23:51.666Z,15.63
2018-11-29T12:26:20.183Z,16.47
2018-11-29T12:28:48.655Z,16.23
2018-11-29T12:31:17.103Z,14.97
2018-11-29T12:33:45.593Z,16.00
2018-11-29T12:36:13.961Z,15.90
2018-11-29T12:38:42.338Z,15.60
2018-11-29T12:41:10.786Z,14.70
2018-11-29T12:43:39.215Z,15.10
2018-11-29T12:46:07.675Z,15.57
2018-11-29T12:48:36.118Z,15.70
2018-11-29T12:51:04.713Z,21.90
2018-11-29T12:53:33.221Z,21.33
2018-11-29T12:56:01.735Z,17.70
2018-11-29T12:58:30.252Z,17.90
2018-11-29T13:00:58.757Z,17.80
2018-11-29T13:03:27.220Z,15.63
2018-11-29T13:05:55.629Z,15.97
2018-11-29T13:08:24.906Z,16.20
2018-11-29T13:10:53.315Z,16.70
2018-11-29T13:13:21.798Z,15.73
2018-11-29T13:15:50.221Z,17.20
2018-11-29T13:18:18.562Z,15.50
2018-11-29T13:20:47.075Z,15.77
2018-11-29T13:23:15.460Z,16.07
2018-11-29T13:25:43.907Z,17.13
2018-11-29T13:28:12.335Z,14.73
2018-11-29T13:30:40.781Z,14.60
2018-11-29T13:33:09.968Z,15.40
2018-11-29T13:35:38.357Z,14.50
2018-11-29T13:38:14.439Z,16.73
2018-11-29T13:40:45.109Z,15.60
2018-11-29T13:43:13.690Z,15.13
2018-11-29T13:45:42.371Z,14.80
2018-11-29T13:48:12.153Z,15.10
2018-11-29T13:50:40.744Z,15.43
2018-11-29T13:53:09.124Z,14.67
2018-11-29T13:55:37.698Z,15.33
2018-11-29T13:58:06.149Z,16.53
2018-11-29T14:00:34.835Z,15.17
2018-11-29T14:03:06.169Z,16.57
2018-11-29T14:05:34.817Z,17.07
2018-11-29T14:08:03.327Z,17.40
2018-11-29T14:10:31.758Z,16.17
2018-11-29T14:13:00.292Z,16.60
2018-11-29T14:15:29.188Z,15.27
2018-11-29T14:17:57.572Z,15.53
2018-11-29T14:20:25.943Z,17.00
2018-11-29T14:22:54.388Z,15.43
2018-11-29T14:25:22.790Z,16.23
2018-11-29T14:27:52.810Z,15.93
2018-11-29T14:30:23.215Z,17.37
2018-11-29T14:32:52.225Z,16.40
2018-11-29T14:35:20.912Z,16.17
2018-11-29T14:37:49.383Z,12.67
2018-11-29T14:40:21.631Z,16.17
2018-11-29T14:42:50.568Z,16.63
2018-11-29T14:45:20.842Z,17.27
2018-11-29T14:47:49.272Z,16.93
2018-11-29T14:50:21.913Z,17.40
2018-11-29T14:52:50.332Z,17.60
2018-11-29T14:55:18.752Z,17.90
2018-11-29T14:57:47.191Z,18.90
2018-11-29T15:00:15.683Z,17.80
2018-11-29T15:02:44.079Z,17.50
2018-11-29T15:05:21.003Z,16.97
2018-11-29T15:07:49.464Z,16.60
2018-11-29T15:10:17.837Z,17.80
2018-11-29T15:12:46.292Z,18.33
2018-11-29T15:15:14.727Z,19.90
2018-11-29T15:17:43.990Z,18.97
2018-11-29T15:20:14.982Z,18.43
2018-11-29T15:22:43.602Z,18.42
2018-11-29T15:25:12.006Z,18.70
2018-11-29T15:27:40.446Z,19.63
2018-11-29T15:30:10.688Z,20.27
2018-11-29T15:32:39.100Z,20.57
2018-11-29T15:35:07.964Z,20.33
2018-11-29T15:37:36.700Z,20.10
2018-11-29T15:40:07.890Z,19.80
2018-11-29T15:42:36.352Z,19.32
2018-11-29T15:45:06.582Z,20.90
2018-11-29T15:47:35.003Z,19.37
2018-11-29T15:50:03.688Z,20.00
2018-11-29T15:52:32.083Z,19.53
2018-11-29T15:55:00.503Z,20.83
2018-11-29T15:57:34.544Z,21.43
2018-11-29T15:59:57.360Z,20.30
2018-11-29T16:02:25.773Z,20.17
2018-11-29T16:04:54.206Z,19.47
2018-11-29T16:07:23.034Z,21.10
2018-11-29T16:09:51.564Z,19.63
2018-11-29T16:12:19.986Z,20.80
2018-11-29T16:14:48.454Z,20.13
2018-11-29T16:17:16.961Z,19.60
2018-11-29T16:19:45.331Z,20.80
2018-11-29T16:22:13.838Z,19.33
2018-11-29T16:24:42.317Z,19.10
2018-11-29T16:27:10.759Z,20.07
2018-11-29T16:29:39.222Z,21.17
2018-11-29T16:32:08.551Z,20.00
2018-11-29T16:34:36.943Z,19.27
2018-11-29T16:37:05.514Z,20.13
2018-11-29T16:39:33.933Z,20.23
2018-11-29T16:42:02.500Z,21.50
2018-11-29T16:44:30.914Z,27.77
2018-11-29T16:46:59.540Z,30.73
2018-11-29T16:49:27.960Z,43.28
2018-11-29T16:51:56.386Z,31.75
2018-11-29T16:54:24.794Z,31.10
2018-11-29T16:56:53.359Z,22.43
2018-11-29T16:59:21.780Z,21.10
2018-11-29T17:01:50.297Z,20.10
2018-11-29T17:04:18.695Z,20.55
2018-11-29T17:06:47.175Z,18.48
2018-11-29T17:09:15.563Z,20.15
2018-11-29T17:11:44.001Z,20.97
2018-11-29T17:14:12.432Z,18.98
2018-11-29T17:16:40.800Z,22.82
2018-11-29T17:19:09.279Z,21.70
2018-11-29T17:21:37.755Z,19.83
2018-11-29T17:24:06.176Z,20.90
2018-11-29T17:26:34.649Z,50.38
2018-11-29T17:29:03.146Z,30.52
2018-11-29T17:31:31.595Z,24.12
2018-11-29T17:34:00.071Z,24.45
2018-11-29T17:36:28.427Z,24.77
2018-11-29T17:38:56.842Z,23.77
2018-11-29T17:41:25.209Z,26.90
2018-11-29T17:43:53.580Z,25.62
2018-11-29T17:46:21.990Z,25.80
2018-11-29T17:48:50.418Z,26.10
2018-11-29T17:51:18.884Z,27.98
2018-11-29T17:53:47.265Z,25.82
2018-11-29T17:56:15.679Z,25.37
2018-11-29T17:58:44.178Z,25.35
2018-11-29T18:01:12.611Z,25.12
2018-11-29T18:03:41.097Z,25.65
2018-11-29T18:06:09.503Z,25.77
2018-11-29T18:08:37.952Z,23.40
2018-11-29T18:11:07.415Z,24.15
2018-11-29T18:13:37.014Z,23.32
2018-11-29T18:16:06.188Z,22.05
2018-11-29T18:18:34.575Z,22.02
2018-11-29T18:21:03.178Z,23.83
2018-11-29T18:23:31.803Z,24.72
2018-11-29T18:26:00.246Z,24.25
2018-11-29T18:28:28.695Z,24.70
2018-11-29T18:30:57.110Z,32.83
2018-11-29T18:33:25.553Z,26.70
2018-11-29T18:35:54.025Z,25.40
2018-11-29T18:38:22.504Z,21.62
2018-11-29T18:40:50.974Z,21.90
2018-11-29T18:43:19.404Z,24.07
2018-11-29T18:45:48.055Z,23.77
2018-11-29T18:48:16.540Z,24.15
2018-11-29T18:50:44.917Z,24.55
2018-11-29T18:53:13.701Z,24.80
2018-11-29T18:55:42.111Z,25.08
2018-11-29T18:58:10.648Z,23.73
2018-11-29T19:00:39.187Z,24.75
2018-11-29T19:03:08.262Z,23.15
2018-11-29T19:05:36.706Z,23.32
2018-11-29T19:08:05.885Z,24.37
2018-11-29T19:10:34.407Z,22.62
2018-11-29T19:13:11.520Z,23.20
2018-11-29T19:15:40.059Z,23.25
2018-11-29T19:18:19.925Z,21.50
2018-11-29T19:20:54.822Z,22.10
2018-11-29T19:23:23.492Z,21.60
2018-11-29T19:25:52.090Z,21.60
2018-11-29T19:28:20.514Z,20.65
2018-11-29T19:30:48.860Z,22.65
2018-11-29T19:33:19.491Z,22.80
2018-11-29T19:35:49.058Z,22.52
2018-11-29T19:38:19.375Z,20.55
2018-11-29T19:40:47.931Z,20.82
2018-11-29T19:43:16.376Z,23.02
2018-11-29T19:45:44.855Z,21.20
2018-11-29T19:48:13.295Z,22.00
2018-11-29T19:50:41.862Z,21.77
2018-11-29T19:53:20.236Z,21.17
2018-11-29T19:55:49.744Z,20.95
2018-11-29T19:58:18.160Z,20.88
2018-11-29T20:00:46.749Z,20.80
2018-11-29T20:03:15.221Z,20.72
2018-11-29T20:05:43.730Z,21.40
2018-11-29T20:08:12.262Z,21.45
2018-11-29T20:10:40.877Z,21.12
2018-11-29T20:13:10.967Z,20.68
2018-11-29T20:15:40.843Z,20.62
2018-11-29T20:18:10.760Z,21.30
2018-11-29T20:20:39.210Z,20.25
2018-11-29T20:23:08.838Z,19.95
2018-11-29T20:25:37.266Z,20.82
2018-11-29T20:28:06.219Z,19.73
2018-11-29T20:30:35.267Z,19.60
2018-11-29T20:33:03.901Z,19.73
2018-11-29T20:35:32.399Z,19.15
2018-11-29T20:38:00.860Z,20.80
2018-11-29T20:40:30.946Z,19.70
2018-11-29T20:43:00.334Z,18.12
2018-11-29T20:45:33.761Z,19.17
2018-11-29T20:48:04.572Z,18.70
2018-11-29T20:50:33.062Z,20.45
2018-11-29T20:53:01.516Z,20.70
2018-11-29T20:55:31.327Z,18.75
2018-11-29T20:57:59.850Z,19.48
2018-11-29T21:00:28.347Z,20.27
2018-11-29T21:02:57.142Z,19.48
2018-11-29T21:05:25.806Z,19.17
2018-11-29T21:07:59.204Z,19.87
2018-11-29T21:10:28.040Z,20.05
2018-11-29T21:12:56.519Z,19.90
2018-11-29T21:15:24.999Z,21.00
2018-11-29T21:17:53.669Z,21.45
2018-11-29T21:20:22.129Z,20.75
2018-11-29T21:22:51.478Z,21.35
2018-11-29T21:25:22.252Z,20.10
2018-11-29T21:27:50.939Z,22.15
2018-11-29T21:30:19.417Z,23.12
2018-11-29T21:32:48.277Z,21.73
2018-11-29T21:35:18.916Z,22.15
2018-11-29T21:37:47.390Z,22.15
2018-11-29T21:40:18.645Z,21.30
2018-11-29T21:42:47.202Z,20.62
2018-11-29T21:45:15.860Z,21.95
2018-11-29T21:47:44.438Z,25.08
2018-11-29T21:50:12.898Z,22.50
2018-11-29T21:52:41.370Z,24.12
2018-11-29T21:55:09.770Z,22.15
2018-11-29T21:57:38.291Z,24.90
2018-11-29T22:00:17.561Z,23.80
2018-11-29T22:02:53.202Z,23.77
2018-11-29T22:05:21.747Z,24.63
2018-11-29T22:07:50.364Z,22.87
2018-11-29T22:10:18.758Z,23.40
2018-11-29T22:12:47.150Z,22.67
2018-11-29T22:15:15.645Z,22.70
2018-11-29T22:18:21.995Z,22.30
2018-11-29T22:20:53.523Z,21.52
2018-11-29T22:23:21.977Z,21.70
2018-11-29T22:25:50.540Z,21.52
2018-11-29T22:28:18.914Z,22.10
2018-11-29T22:30:47.298Z,20.32
2018-11-29T22:33:15.672Z,22.10
2018-11-29T22:35:44.125Z,20.68
2018-11-29T22:38:12.545Z,19.65
2018-11-29T22:40:41.016Z,19.77
2018-11-29T22:43:09.404Z,19.52
2018-11-29T22:45:37.781Z,21.37
2018-11-29T22:48:06.279Z,19.70
2018-11-29T22:50:34.682Z,18.90
2018-11-29T22:53:03.086Z,19.80
2018-11-29T22:55:31.529Z,19.32
2018-11-29T22:57:59.862Z,19.37
2018-11-29T23:00:32.453Z,21.07
2018-11-29T23:03:00.797Z,19.85
2018-11-29T23:05:29.285Z,18.62
2018-11-29T23:07:57.971Z,18.27
2018-11-29T23:10:26.349Z,18.87
2018-11-29T23:12:54.692Z,18.23
2018-11-29T23:15:23.103Z,19.17
2018-11-29T23:17:51.504Z,18.87
2018-11-29T23:20:19.949Z,18.80
2018-11-29T23:22:48.351Z,19.87
2018-11-29T23:25:16.726Z,16.57
2018-11-29T23:27:45.151Z,19.00
2018-11-29T23:30:15.561Z,18.35
2018-11-29T23:32:44.187Z,19.15
2018-11-29T23:35:13.442Z,18.32
2018-11-29T23:37:41.861Z,18.57
2018-11-29T23:40:15.044Z,18.95
2018-11-29T23:42:43.490Z,21.33
2018-11-29T23:45:12.631Z,18.67
2018-11-29T23:47:41.087Z,17.23
2018-11-29T23:50:17.160Z,17.20
2018-11-29T23:52:45.765Z,18.80
2018-11-29T23:55:17.206Z,18.55
2018-11-29T23:57:45.556Z,18.00
